sensor_id;sensor_type;location;lat;lon;timestamp;P1;durP1;ratioP1;P2;durP2;ratioP2
56435;SDS011;42335;44.872;20.658;2024-02-16T00:01:18;110.05;;;62.25;;
56435;SDS011;42335;44.872;20.658;2024-02-16T00:03:44;126.38;;;70.50;;
56435;SDS011;42335;44.872;20.658;2024-02-16T00:06:10;128.48;;;73.93;;
56435;SDS011;42335;44.872;20.658;2024-02-16T00:08:36;147.63;;;80.78;;
56435;SDS011;42335;44.872;20.658;2024-02-16T00:11:04;153.35;;;87.30;;
56435;SDS011;42335;44.872;20.658;2024-02-16T00:13:30;147.43;;;88.00;;
56435;SDS011;42335;44.872;20.658;2024-02-16T00:15:56;165.50;;;87.53;;
56435;SDS011;42335;44.872;20.658;2024-02-16T00:18:22;159.52;;;89.25;;
56435;SDS011;42335;44.872;20.658;2024-02-16T00:20:49;158.05;;;89.47;;
56435;SDS011;42335;44.872;20.658;2024-02-16T00:23:14;142.85;;;79.50;;
56435;SDS011;42335;44.872;20.658;2024-02-16T00:25:40;154.95;;;89.38;;
56435;SDS011;42335;44.872;20.658;2024-02-16T00:28:07;158.40;;;88.35;;
56435;SDS011;42335;44.872;20.658;2024-02-16T00:30:33;161.90;;;89.18;;
56435;SDS011;42335;44.872;20.658;2024-02-16T00:32:59;157.18;;;83.50;;
56435;SDS011;42335;44.872;20.658;2024-02-16T00:35:26;150.05;;;82.45;;
56435;SDS011;42335;44.872;20.658;2024-02-16T00:37:51;164.55;;;86.22;;
56435;SDS011;42335;44.872;20.658;2024-02-16T00:40:17;133.02;;;76.82;;
56435;SDS011;42335;44.872;20.658;2024-02-16T00:42:43;141.05;;;72.75;;
56435;SDS011;42335;44.872;20.658;2024-02-16T00:45:09;147.00;;;75.53;;
56435;SDS011;42335;44.872;20.658;2024-02-16T00:47:34;139.25;;;74.85;;
56435;SDS011;42335;44.872;20.658;2024-02-16T00:50:00;134.45;;;75.07;;
56435;SDS011;42335;44.872;20.658;2024-02-16T00:52:26;128.95;;;76.28;;
56435;SDS011;42335;44.872;20.658;2024-02-16T00:54:52;143.68;;;75.05;;
56435;SDS011;42335;44.872;20.658;2024-02-16T00:57:18;146.73;;;79.75;;
56435;SDS011;42335;44.872;20.658;2024-02-16T00:59:43;127.32;;;72.75;;
56435;SDS011;42335;44.872;20.658;2024-02-16T01:02:09;136.88;;;76.90;;
56435;SDS011;42335;44.872;20.658;2024-02-16T01:04:36;130.43;;;75.97;;
56435;SDS011;42335;44.872;20.658;2024-02-16T01:07:02;142.95;;;77.10;;
56435;SDS011;42335;44.872;20.658;2024-02-16T01:09:28;134.93;;;75.70;;
56435;SDS011;42335;44.872;20.658;2024-02-16T01:11:54;133.40;;;77.97;;
56435;SDS011;42335;44.872;20.658;2024-02-16T01:14:20;164.65;;;89.00;;
56435;SDS011;42335;44.872;20.658;2024-02-16T01:16:46;150.48;;;83.85;;
56435;SDS011;42335;44.872;20.658;2024-02-16T01:19:11;152.70;;;86.75;;
56435;SDS011;42335;44.872;20.658;2024-02-16T01:21:37;153.77;;;86.78;;
56435;SDS011;42335;44.872;20.658;2024-02-16T01:24:04;147.25;;;84.85;;
56435;SDS011;42335;44.872;20.658;2024-02-16T01:26:30;146.57;;;84.82;;
56435;SDS011;42335;44.872;20.658;2024-02-16T01:28:57;159.95;;;84.78;;
56435;SDS011;42335;44.872;20.658;2024-02-16T01:31:23;148.57;;;81.88;;
56435;SDS011;42335;44.872;20.658;2024-02-16T01:33:49;151.55;;;80.75;;
56435;SDS011;42335;44.872;20.658;2024-02-16T01:36:14;140.02;;;83.97;;
56435;SDS011;42335;44.872;20.658;2024-02-16T01:38:40;148.73;;;83.80;;
56435;SDS011;42335;44.872;20.658;2024-02-16T01:41:06;151.57;;;84.30;;
56435;SDS011;42335;44.872;20.658;2024-02-16T01:43:33;152.02;;;83.32;;
56435;SDS011;42335;44.872;20.658;2024-02-16T01:45:59;147.68;;;84.43;;
56435;SDS011;42335;44.872;20.658;2024-02-16T01:48:26;146.13;;;82.50;;
56435;SDS011;42335;44.872;20.658;2024-02-16T01:50:52;149.07;;;86.45;;
56435;SDS011;42335;44.872;20.658;2024-02-16T01:53:19;150.90;;;84.40;;
56435;SDS011;42335;44.872;20.658;2024-02-16T01:55:46;153.68;;;84.88;;
56435;SDS011;42335;44.872;20.658;2024-02-16T01:58:12;148.60;;;85.55;;
56435;SDS011;42335;44.872;20.658;2024-02-16T02:00:39;147.35;;;85.05;;
56435;SDS011;42335;44.872;20.658;2024-02-16T02:03:06;149.80;;;83.07;;
56435;SDS011;42335;44.872;20.658;2024-02-16T02:05:32;151.05;;;85.80;;
56435;SDS011;42335;44.872;20.658;2024-02-16T02:07:58;152.70;;;86.97;;
56435;SDS011;42335;44.872;20.658;2024-02-16T02:10:24;150.45;;;88.45;;
56435;SDS011;42335;44.872;20.658;2024-02-16T02:12:50;139.20;;;80.82;;
56435;SDS011;42335;44.872;20.658;2024-02-16T02:15:15;143.85;;;82.22;;
56435;SDS011;42335;44.872;20.658;2024-02-16T02:17:41;142.90;;;78.93;;
56435;SDS011;42335;44.872;20.658;2024-02-16T02:20:07;128.35;;;71.28;;
56435;SDS011;42335;44.872;20.658;2024-02-16T02:22:36;121.63;;;69.43;;
56435;SDS011;42335;44.872;20.658;2024-02-16T02:25:05;99.28;;;57.85;;
56435;SDS011;42335;44.872;20.658;2024-02-16T02:27:31;96.93;;;55.75;;
56435;SDS011;42335;44.872;20.658;2024-02-16T02:29:56;92.85;;;55.13;;
56435;SDS011;42335;44.872;20.658;2024-02-16T02:32:23;89.20;;;51.92;;
56435;SDS011;42335;44.872;20.658;2024-02-16T02:34:49;84.05;;;45.70;;
56435;SDS011;42335;44.872;20.658;2024-02-16T02:37:15;74.35;;;44.72;;
56435;SDS011;42335;44.872;20.658;2024-02-16T02:39:40;76.95;;;44.45;;
56435;SDS011;42335;44.872;20.658;2024-02-16T02:42:06;72.45;;;42.20;;
56435;SDS011;42335;44.872;20.658;2024-02-16T02:44:33;74.70;;;42.50;;
56435;SDS011;42335;44.872;20.658;2024-02-16T02:47:00;77.10;;;44.40;;
56435;SDS011;42335;44.872;20.658;2024-02-16T02:49:26;76.13;;;43.35;;
56435;SDS011;42335;44.872;20.658;2024-02-16T02:51:53;85.15;;;48.35;;
56435;SDS011;42335;44.872;20.658;2024-02-16T02:54:19;78.20;;;45.78;;
56435;SDS011;42335;44.872;20.658;2024-02-16T02:56:44;87.95;;;47.08;;
56435;SDS011;42335;44.872;20.658;2024-02-16T02:59:10;80.70;;;47.53;;
56435;SDS011;42335;44.872;20.658;2024-02-16T03:01:36;91.47;;;48.33;;
56435;SDS011;42335;44.872;20.658;2024-02-16T03:04:02;84.60;;;50.58;;
56435;SDS011;42335;44.872;20.658;2024-02-16T03:06:29;95.00;;;52.75;;
56435;SDS011;42335;44.872;20.658;2024-02-16T03:08:54;92.20;;;53.35;;
56435;SDS011;42335;44.872;20.658;2024-02-16T03:11:20;92.55;;;53.45;;
56435;SDS011;42335;44.872;20.658;2024-02-16T03:13:46;86.85;;;51.67;;
56435;SDS011;42335;44.872;20.658;2024-02-16T03:16:12;90.53;;;51.35;;
56435;SDS011;42335;44.872;20.658;2024-02-16T03:18:39;93.25;;;54.13;;
56435;SDS011;42335;44.872;20.658;2024-02-16T03:21:05;89.60;;;51.08;;
56435;SDS011;42335;44.872;20.658;2024-02-16T03:23:31;93.82;;;50.83;;
56435;SDS011;42335;44.872;20.658;2024-02-16T03:25:56;78.65;;;46.75;;
56435;SDS011;42335;44.872;20.658;2024-02-16T03:28:22;93.00;;;49.08;;
56435;SDS011;42335;44.872;20.658;2024-02-16T03:30:48;94.80;;;50.30;;
56435;SDS011;42335;44.872;20.658;2024-02-16T03:33:14;87.35;;;47.80;;
56435;SDS011;42335;44.872;20.658;2024-02-16T03:35:39;87.75;;;47.40;;
56435;SDS011;42335;44.872;20.658;2024-02-16T03:38:05;83.28;;;46.63;;
56435;SDS011;42335;44.872;20.658;2024-02-16T03:40:31;82.25;;;46.70;;
56435;SDS011;42335;44.872;20.658;2024-02-16T03:42:58;89.80;;;47.92;;
56435;SDS011;42335;44.872;20.658;2024-02-16T03:45:24;79.93;;;46.35;;
56435;SDS011;42335;44.872;20.658;2024-02-16T03:47:52;76.88;;;47.90;;
56435;SDS011;42335;44.872;20.658;2024-02-16T03:50:18;80.40;;;46.72;;
56435;SDS011;42335;44.872;20.658;2024-02-16T03:52:44;78.60;;;47.83;;
56435;SDS011;42335;44.872;20.658;2024-02-16T03:55:10;78.13;;;48.22;;
56435;SDS011;42335;44.872;20.658;2024-02-16T03:57:37;80.65;;;49.25;;
56435;SDS011;42335;44.872;20.658;2024-02-16T04:00:03;82.22;;;48.53;;
56435;SDS011;42335;44.872;20.658;2024-02-16T04:02:31;85.40;;;49.10;;
56435;SDS011;42335;44.872;20.658;2024-02-16T04:04:57;83.60;;;49.55;;
56435;SDS011;42335;44.872;20.658;2024-02-16T04:07:23;85.45;;;48.42;;
56435;SDS011;42335;44.872;20.658;2024-02-16T04:09:49;84.85;;;48.72;;
56435;SDS011;42335;44.872;20.658;2024-02-16T04:12:15;84.20;;;48.97;;
56435;SDS011;42335;44.872;20.658;2024-02-16T04:14:41;83.03;;;49.08;;
56435;SDS011;42335;44.872;20.658;2024-02-16T04:17:09;89.72;;;50.88;;
56435;SDS011;42335;44.872;20.658;2024-02-16T04:19:38;88.18;;;51.70;;
56435;SDS011;42335;44.872;20.658;2024-02-16T04:22:03;82.75;;;49.05;;
56435;SDS011;42335;44.872;20.658;2024-02-16T04:24:29;83.88;;;51.95;;
56435;SDS011;42335;44.872;20.658;2024-02-16T04:26:55;86.70;;;51.60;;
56435;SDS011;42335;44.872;20.658;2024-02-16T04:29:21;86.28;;;51.95;;
56435;SDS011;42335;44.872;20.658;2024-02-16T04:31:46;85.30;;;51.97;;
56435;SDS011;42335;44.872;20.658;2024-02-16T04:34:13;90.20;;;51.22;;
56435;SDS011;42335;44.872;20.658;2024-02-16T04:36:39;91.80;;;52.15;;
56435;SDS011;42335;44.872;20.658;2024-02-16T04:39:05;93.57;;;52.28;;
56435;SDS011;42335;44.872;20.658;2024-02-16T04:41:31;93.25;;;51.67;;
56435;SDS011;42335;44.872;20.658;2024-02-16T04:43:57;95.70;;;55.58;;
56435;SDS011;42335;44.872;20.658;2024-02-16T04:46:23;92.65;;;55.58;;
56435;SDS011;42335;44.872;20.658;2024-02-16T04:48:49;83.97;;;51.78;;
56435;SDS011;42335;44.872;20.658;2024-02-16T04:51:14;87.05;;;52.22;;
56435;SDS011;42335;44.872;20.658;2024-02-16T04:53:40;88.22;;;55.00;;
56435;SDS011;42335;44.872;20.658;2024-02-16T04:56:06;88.32;;;53.35;;
56435;SDS011;42335;44.872;20.658;2024-02-16T04:58:32;94.30;;;51.30;;
56435;SDS011;42335;44.872;20.658;2024-02-16T05:00:57;88.05;;;52.88;;
56435;SDS011;42335;44.872;20.658;2024-02-16T05:03:23;87.85;;;51.42;;
56435;SDS011;42335;44.872;20.658;2024-02-16T05:05:50;87.28;;;53.28;;
56435;SDS011;42335;44.872;20.658;2024-02-16T05:08:17;90.90;;;53.58;;
56435;SDS011;42335;44.872;20.658;2024-02-16T05:10:43;92.53;;;52.92;;
56435;SDS011;42335;44.872;20.658;2024-02-16T05:13:08;89.50;;;53.13;;
56435;SDS011;42335;44.872;20.658;2024-02-16T05:15:36;94.32;;;53.28;;
56435;SDS011;42335;44.872;20.658;2024-02-16T05:18:02;85.85;;;52.40;;
56435;SDS011;42335;44.872;20.658;2024-02-16T05:20:28;90.60;;;55.30;;
56435;SDS011;42335;44.872;20.658;2024-02-16T05:22:53;85.25;;;52.53;;
56435;SDS011;42335;44.872;20.658;2024-02-16T05:25:19;91.20;;;51.35;;
56435;SDS011;42335;44.872;20.658;2024-02-16T05:27:45;86.88;;;50.33;;
56435;SDS011;42335;44.872;20.658;2024-02-16T05:30:12;83.60;;;51.55;;
56435;SDS011;42335;44.872;20.658;2024-02-16T05:32:40;82.18;;;48.85;;
56435;SDS011;42335;44.872;20.658;2024-02-16T05:35:07;87.55;;;49.85;;
56435;SDS011;42335;44.872;20.658;2024-02-16T05:37:46;86.18;;;48.08;;
56435;SDS011;42335;44.872;20.658;2024-02-16T05:40:16;77.25;;;47.78;;
56435;SDS011;42335;44.872;20.658;2024-02-16T05:42:56;79.78;;;47.97;;
56435;SDS011;42335;44.872;20.658;2024-02-16T05:45:26;82.60;;;48.38;;
56435;SDS011;42335;44.872;20.658;2024-02-16T05:47:51;77.05;;;47.08;;
56435;SDS011;42335;44.872;20.658;2024-02-16T05:50:20;83.40;;;50.88;;
56435;SDS011;42335;44.872;20.658;2024-02-16T05:52:47;86.43;;;46.17;;
56435;SDS011;42335;44.872;20.658;2024-02-16T05:55:14;79.18;;;48.22;;
56435;SDS011;42335;44.872;20.658;2024-02-16T05:57:40;75.15;;;47.42;;
56435;SDS011;42335;44.872;20.658;2024-02-16T06:00:07;80.72;;;45.58;;
56435;SDS011;42335;44.872;20.658;2024-02-16T06:02:36;88.50;;;47.78;;
56435;SDS011;42335;44.872;20.658;2024-02-16T06:05:02;72.45;;;44.17;;
56435;SDS011;42335;44.872;20.658;2024-02-16T06:07:29;86.07;;;45.58;;
56435;SDS011;42335;44.872;20.658;2024-02-16T06:09:55;74.32;;;44.33;;
56435;SDS011;42335;44.872;20.658;2024-02-16T06:12:21;74.45;;;42.50;;
56435;SDS011;42335;44.872;20.658;2024-02-16T06:14:47;73.35;;;44.78;;
56435;SDS011;42335;44.872;20.658;2024-02-16T06:17:13;76.50;;;44.50;;
56435;SDS011;42335;44.872;20.658;2024-02-16T06:19:42;76.43;;;46.00;;
56435;SDS011;42335;44.872;20.658;2024-02-16T06:22:08;77.50;;;46.35;;
56435;SDS011;42335;44.872;20.658;2024-02-16T06:24:35;78.28;;;48.20;;
56435;SDS011;42335;44.872;20.658;2024-02-16T06:27:00;73.63;;;44.67;;
56435;SDS011;42335;44.872;20.658;2024-02-16T06:29:26;69.65;;;44.33;;
56435;SDS011;42335;44.872;20.658;2024-02-16T06:31:53;70.30;;;44.50;;
56435;SDS011;42335;44.872;20.658;2024-02-16T06:34:18;74.07;;;43.95;;
56435;SDS011;42335;44.872;20.658;2024-02-16T06:36:45;72.45;;;43.55;;
56435;SDS011;42335;44.872;20.658;2024-02-16T06:39:11;73.20;;;44.67;;
56435;SDS011;42335;44.872;20.658;2024-02-16T06:41:42;89.82;;;47.25;;
56435;SDS011;42335;44.872;20.658;2024-02-16T06:44:09;73.20;;;45.38;;
56435;SDS011;42335;44.872;20.658;2024-02-16T06:46:35;77.47;;;44.95;;
56435;SDS011;42335;44.872;20.658;2024-02-16T06:49:01;75.32;;;46.28;;
56435;SDS011;42335;44.872;20.658;2024-02-16T06:51:26;67.63;;;44.40;;
56435;SDS011;42335;44.872;20.658;2024-02-16T06:53:53;79.43;;;46.40;;
56435;SDS011;42335;44.872;20.658;2024-02-16T06:56:19;61.45;;;41.00;;
56435;SDS011;42335;44.872;20.658;2024-02-16T06:58:45;72.57;;;41.13;;
56435;SDS011;42335;44.872;20.658;2024-02-16T07:01:12;66.57;;;42.35;;
56435;SDS011;42335;44.872;20.658;2024-02-16T07:03:39;69.90;;;43.10;;
56435;SDS011;42335;44.872;20.658;2024-02-16T07:06:05;66.20;;;42.67;;
56435;SDS011;42335;44.872;20.658;2024-02-16T07:08:35;63.58;;;40.95;;
56435;SDS011;42335;44.872;20.658;2024-02-16T07:11:01;71.97;;;37.92;;
56435;SDS011;42335;44.872;20.658;2024-02-16T07:13:28;60.38;;;37.35;;
56435;SDS011;42335;44.872;20.658;2024-02-16T07:15:54;59.88;;;36.63;;
56435;SDS011;42335;44.872;20.658;2024-02-16T07:18:20;62.10;;;35.03;;
56435;SDS011;42335;44.872;20.658;2024-02-16T07:20:46;53.30;;;32.25;;
56435;SDS011;42335;44.872;20.658;2024-02-16T07:23:12;59.85;;;34.72;;
56435;SDS011;42335;44.872;20.658;2024-02-16T07:25:40;53.60;;;33.17;;
56435;SDS011;42335;44.872;20.658;2024-02-16T07:28:07;48.88;;;33.35;;
56435;SDS011;42335;44.872;20.658;2024-02-16T07:30:34;50.75;;;32.55;;
56435;SDS011;42335;44.872;20.658;2024-02-16T07:33:04;47.60;;;33.85;;
56435;SDS011;42335;44.872;20.658;2024-02-16T07:35:30;53.55;;;34.58;;
56435;SDS011;42335;44.872;20.658;2024-02-16T07:37:56;48.60;;;33.00;;
56435;SDS011;42335;44.872;20.658;2024-02-16T07:40:21;49.15;;;32.67;;
56435;SDS011;42335;44.872;20.658;2024-02-16T07:42:47;49.15;;;31.50;;
56435;SDS011;42335;44.872;20.658;2024-02-16T07:45:13;46.63;;;29.90;;
56435;SDS011;42335;44.872;20.658;2024-02-16T07:47:42;43.58;;;31.92;;
56435;SDS011;42335;44.872;20.658;2024-02-16T07:50:08;41.95;;;28.35;;
56435;SDS011;42335;44.872;20.658;2024-02-16T07:52:35;36.97;;;27.95;;
56435;SDS011;42335;44.872;20.658;2024-02-16T07:55:01;33.63;;;27.25;;
56435;SDS011;42335;44.872;20.658;2024-02-16T07:57:26;38.22;;;27.10;;
56435;SDS011;42335;44.872;20.658;2024-02-16T07:59:52;36.88;;;26.05;;
56435;SDS011;42335;44.872;20.658;2024-02-16T08:02:18;32.58;;;26.70;;
56435;SDS011;42335;44.872;20.658;2024-02-16T08:04:48;42.38;;;27.17;;
56435;SDS011;42335;44.872;20.658;2024-02-16T08:07:14;38.17;;;25.40;;
56435;SDS011;42335;44.872;20.658;2024-02-16T08:09:43;33.60;;;26.15;;
56435;SDS011;42335;44.872;20.658;2024-02-16T08:12:10;28.40;;;24.60;;
56435;SDS011;42335;44.872;20.658;2024-02-16T08:14:38;32.95;;;24.30;;
56435;SDS011;42335;44.872;20.658;2024-02-16T08:17:05;33.33;;;24.52;;
56435;SDS011;42335;44.872;20.658;2024-02-16T08:19:32;34.30;;;24.42;;
56435;SDS011;42335;44.872;20.658;2024-02-16T08:21:59;32.78;;;24.92;;
56435;SDS011;42335;44.872;20.658;2024-02-16T08:24:29;31.80;;;23.27;;
56435;SDS011;42335;44.872;20.658;2024-02-16T08:27:02;31.35;;;24.77;;
56435;SDS011;42335;44.872;20.658;2024-02-16T08:29:29;31.90;;;24.33;;
56435;SDS011;42335;44.872;20.658;2024-02-16T08:31:55;39.03;;;24.65;;
56435;SDS011;42335;44.872;20.658;2024-02-16T08:34:21;32.88;;;21.92;;
56435;SDS011;42335;44.872;20.658;2024-02-16T08:36:48;29.23;;;21.73;;
56435;SDS011;42335;44.872;20.658;2024-02-16T08:39:15;31.20;;;20.83;;
56435;SDS011;42335;44.872;20.658;2024-02-16T08:41:42;34.03;;;20.98;;
56435;SDS011;42335;44.872;20.658;2024-02-16T08:44:18;27.73;;;19.50;;
56435;SDS011;42335;44.872;20.658;2024-02-16T08:46:44;29.25;;;19.55;;
56435;SDS011;42335;44.872;20.658;2024-02-16T08:49:11;27.02;;;19.00;;
56435;SDS011;42335;44.872;20.658;2024-02-16T08:51:37;24.58;;;18.90;;
56435;SDS011;42335;44.872;20.658;2024-02-16T08:54:03;23.02;;;19.60;;
56435;SDS011;42335;44.872;20.658;2024-02-16T08:56:29;29.60;;;19.38;;
56435;SDS011;42335;44.872;20.658;2024-02-16T08:58:56;28.60;;;20.38;;
56435;SDS011;42335;44.872;20.658;2024-02-16T09:01:35;26.65;;;19.75;;
56435;SDS011;42335;44.872;20.658;2024-02-16T09:04:02;25.08;;;19.88;;
56435;SDS011;42335;44.872;20.658;2024-02-16T09:06:28;31.02;;;19.88;;
56435;SDS011;42335;44.872;20.658;2024-02-16T09:08:55;24.27;;;18.40;;
56435;SDS011;42335;44.872;20.658;2024-02-16T09:11:21;26.15;;;18.70;;
56435;SDS011;42335;44.872;20.658;2024-02-16T09:13:48;30.98;;;19.17;;
56435;SDS011;42335;44.872;20.658;2024-02-16T09:16:14;28.00;;;19.73;;
56435;SDS011;42335;44.872;20.658;2024-02-16T09:18:40;26.65;;;19.15;;
56435;SDS011;42335;44.872;20.658;2024-02-16T09:21:06;31.33;;;19.58;;
56435;SDS011;42335;44.872;20.658;2024-02-16T09:23:32;22.95;;;18.55;;
56435;SDS011;42335;44.872;20.658;2024-02-16T09:25:59;25.58;;;18.88;;
56435;SDS011;42335;44.872;20.658;2024-02-16T09:28:25;30.38;;;19.38;;
56435;SDS011;42335;44.872;20.658;2024-02-16T09:30:53;23.88;;;17.80;;
56435;SDS011;42335;44.872;20.658;2024-02-16T09:33:20;24.10;;;19.10;;
56435;SDS011;42335;44.872;20.658;2024-02-16T09:35:47;22.17;;;18.77;;
56435;SDS011;42335;44.872;20.658;2024-02-16T09:38:13;22.20;;;18.13;;
56435;SDS011;42335;44.872;20.658;2024-02-16T09:40:39;22.48;;;17.65;;
56435;SDS011;42335;44.872;20.658;2024-02-16T09:43:05;25.60;;;17.70;;
56435;SDS011;42335;44.872;20.658;2024-02-16T09:45:31;28.05;;;17.48;;
56435;SDS011;42335;44.872;20.658;2024-02-16T09:47:58;21.52;;;16.92;;
56435;SDS011;42335;44.872;20.658;2024-02-16T09:50:24;25.27;;;17.77;;
56435;SDS011;42335;44.872;20.658;2024-02-16T09:52:52;27.70;;;16.90;;
56435;SDS011;42335;44.872;20.658;2024-02-16T09:55:18;18.10;;;15.48;;
56435;SDS011;42335;44.872;20.658;2024-02-16T09:57:44;19.88;;;15.57;;
56435;SDS011;42335;44.872;20.658;2024-02-16T10:00:10;17.52;;;13.45;;
56435;SDS011;42335;44.872;20.658;2024-02-16T10:02:42;25.00;;;14.52;;
56435;SDS011;42335;44.872;20.658;2024-02-16T10:07:41;20.42;;;13.90;;
56435;SDS011;42335;44.872;20.658;2024-02-16T10:10:25;22.20;;;14.82;;
56435;SDS011;42335;44.872;20.658;2024-02-16T10:13:06;16.15;;;12.88;;
56435;SDS011;42335;44.872;20.658;2024-02-16T10:15:33;21.63;;;14.30;;
56435;SDS011;42335;44.872;20.658;2024-02-16T10:18:00;17.08;;;12.10;;
56435;SDS011;42335;44.872;20.658;2024-02-16T10:20:32;14.60;;;12.35;;
56435;SDS011;42335;44.872;20.658;2024-02-16T10:23:02;14.88;;;12.60;;
56435;SDS011;42335;44.872;20.658;2024-02-16T10:25:32;19.02;;;13.57;;
56435;SDS011;42335;44.872;20.658;2024-02-16T10:28:00;18.65;;;12.05;;
56435;SDS011;42335;44.872;20.658;2024-02-16T10:30:34;22.10;;;11.40;;
56435;SDS011;42335;44.872;20.658;2024-02-16T10:33:02;15.82;;;11.15;;
56435;SDS011;42335;44.872;20.658;2024-02-16T10:35:29;14.02;;;11.95;;
56435;SDS011;42335;44.872;20.658;2024-02-16T10:37:55;14.32;;;10.07;;
56435;SDS011;42335;44.872;20.658;2024-02-16T10:40:23;19.65;;;12.25;;
56435;SDS011;42335;44.872;20.658;2024-02-16T10:42:49;16.27;;;12.60;;
56435;SDS011;42335;44.872;20.658;2024-02-16T10:45:16;14.25;;;10.95;;
56435;SDS011;42335;44.872;20.658;2024-02-16T10:47:43;14.65;;;11.43;;
56435;SDS011;42335;44.872;20.658;2024-02-16T10:50:11;15.18;;;11.50;;
56435;SDS011;42335;44.872;20.658;2024-02-16T10:52:38;16.98;;;11.20;;
56435;SDS011;42335;44.872;20.658;2024-02-16T10:55:07;14.05;;;11.05;;
56435;SDS011;42335;44.872;20.658;2024-02-16T10:57:36;13.27;;;10.65;;
56435;SDS011;42335;44.872;20.658;2024-02-16T11:00:08;11.25;;;9.65;;
56435;SDS011;42335;44.872;20.658;2024-02-16T11:02:58;13.90;;;10.70;;
56435;SDS011;42335;44.872;20.658;2024-02-16T11:05:58;14.02;;;10.27;;
56435;SDS011;42335;44.872;20.658;2024-02-16T11:08:18;12.25;;;10.15;;
56435;SDS011;42335;44.872;20.658;2024-02-16T11:10:57;11.60;;;9.38;;
56435;SDS011;42335;44.872;20.658;2024-02-16T11:13:31;11.77;;;8.52;;
56435;SDS011;42335;44.872;20.658;2024-02-16T11:18:27;16.60;;;10.38;;
56435;SDS011;42335;44.872;20.658;2024-02-16T11:20:59;11.05;;;9.70;;
56435;SDS011;42335;44.872;20.658;2024-02-16T11:23:37;17.50;;;9.88;;
56435;SDS011;42335;44.872;20.658;2024-02-16T11:26:08;14.13;;;10.40;;
56435;SDS011;42335;44.872;20.658;2024-02-16T11:28:41;16.20;;;9.50;;
56435;SDS011;42335;44.872;20.658;2024-02-16T11:31:07;14.23;;;9.77;;
56435;SDS011;42335;44.872;20.658;2024-02-16T11:33:34;14.07;;;10.00;;
56435;SDS011;42335;44.872;20.658;2024-02-16T11:36:01;32.08;;;10.95;;
56435;SDS011;42335;44.872;20.658;2024-02-16T11:38:33;14.82;;;9.10;;
56435;SDS011;42335;44.872;20.658;2024-02-16T11:41:01;13.77;;;9.45;;
56435;SDS011;42335;44.872;20.658;2024-02-16T11:43:29;10.57;;;9.48;;
56435;SDS011;42335;44.872;20.658;2024-02-16T11:45:55;15.10;;;9.80;;
56435;SDS011;42335;44.872;20.658;2024-02-16T11:48:26;14.68;;;8.98;;
56435;SDS011;42335;44.872;20.658;2024-02-16T11:51:00;11.48;;;8.52;;
56435;SDS011;42335;44.872;20.658;2024-02-16T11:53:28;14.10;;;9.32;;
56435;SDS011;42335;44.872;20.658;2024-02-16T11:55:54;10.82;;;8.55;;
56435;SDS011;42335;44.872;20.658;2024-02-16T11:58:20;8.02;;;6.85;;
56435;SDS011;42335;44.872;20.658;2024-02-16T12:00:47;9.38;;;7.70;;
56435;SDS011;42335;44.872;20.658;2024-02-16T12:03:26;12.80;;;8.18;;
56435;SDS011;42335;44.872;20.658;2024-02-16T12:05:59;11.20;;;8.40;;
56435;SDS011;42335;44.872;20.658;2024-02-16T12:10:57;12.80;;;8.27;;
56435;SDS011;42335;44.872;20.658;2024-02-16T12:13:23;11.05;;;8.07;;
56435;SDS011;42335;44.872;20.658;2024-02-16T12:15:49;11.52;;;8.20;;
56435;SDS011;42335;44.872;20.658;2024-02-16T12:18:26;8.07;;;6.35;;
56435;SDS011;42335;44.872;20.658;2024-02-16T12:20:59;20.35;;;7.20;;
56435;SDS011;42335;44.872;20.658;2024-02-16T12:23:26;13.18;;;8.18;;
56435;SDS011;42335;44.872;20.658;2024-02-16T12:25:53;13.10;;;8.27;;
56435;SDS011;42335;44.872;20.658;2024-02-16T12:28:19;10.73;;;8.30;;
56435;SDS011;42335;44.872;20.658;2024-02-16T12:30:47;12.23;;;7.53;;
56435;SDS011;42335;44.872;20.658;2024-02-16T12:33:13;9.70;;;7.10;;
56435;SDS011;42335;44.872;20.658;2024-02-16T12:35:40;11.00;;;7.50;;
56435;SDS011;42335;44.872;20.658;2024-02-16T12:38:05;13.68;;;7.78;;
56435;SDS011;42335;44.872;20.658;2024-02-16T12:40:31;12.70;;;7.50;;
56435;SDS011;42335;44.872;20.658;2024-02-16T12:42:58;10.27;;;7.85;;
56435;SDS011;42335;44.872;20.658;2024-02-16T12:45:24;11.73;;;7.65;;
56435;SDS011;42335;44.872;20.658;2024-02-16T12:47:50;11.27;;;7.93;;
56435;SDS011;42335;44.872;20.658;2024-02-16T12:50:16;17.88;;;8.70;;
56435;SDS011;42335;44.872;20.658;2024-02-16T12:52:42;10.27;;;7.63;;
56435;SDS011;42335;44.872;20.658;2024-02-16T12:55:08;10.15;;;6.97;;
56435;SDS011;42335;44.872;20.658;2024-02-16T12:57:37;9.35;;;7.15;;
56435;SDS011;42335;44.872;20.658;2024-02-16T13:00:04;8.50;;;6.63;;
56435;SDS011;42335;44.872;20.658;2024-02-16T13:02:30;12.32;;;7.70;;
56435;SDS011;42335;44.872;20.658;2024-02-16T13:04:56;8.35;;;6.28;;
56435;SDS011;42335;44.872;20.658;2024-02-16T13:07:23;12.70;;;5.45;;
56435;SDS011;42335;44.872;20.658;2024-02-16T13:09:49;9.73;;;7.03;;
56435;SDS011;42335;44.872;20.658;2024-02-16T13:12:18;10.88;;;7.65;;
56435;SDS011;42335;44.872;20.658;2024-02-16T13:14:47;16.90;;;8.88;;
56435;SDS011;42335;44.872;20.658;2024-02-16T13:17:14;12.13;;;7.80;;
56435;SDS011;42335;44.872;20.658;2024-02-16T13:19:39;10.85;;;8.15;;
56435;SDS011;42335;44.872;20.658;2024-02-16T13:22:05;15.80;;;7.88;;
56435;SDS011;42335;44.872;20.658;2024-02-16T13:24:31;15.60;;;7.85;;
56435;SDS011;42335;44.872;20.658;2024-02-16T13:26:58;14.52;;;8.13;;
56435;SDS011;42335;44.872;20.658;2024-02-16T13:29:24;10.38;;;7.55;;
56435;SDS011;42335;44.872;20.658;2024-02-16T13:31:50;13.50;;;7.82;;
56435;SDS011;42335;44.872;20.658;2024-02-16T13:34:15;15.85;;;6.95;;
56435;SDS011;42335;44.872;20.658;2024-02-16T13:36:41;10.30;;;6.72;;
56435;SDS011;42335;44.872;20.658;2024-02-16T13:39:07;15.80;;;8.88;;
56435;SDS011;42335;44.872;20.658;2024-02-16T13:41:33;13.30;;;8.63;;
56435;SDS011;42335;44.872;20.658;2024-02-16T13:43:59;15.00;;;8.63;;
56435;SDS011;42335;44.872;20.658;2024-02-16T13:46:25;17.27;;;8.30;;
56435;SDS011;42335;44.872;20.658;2024-02-16T13:48:51;13.05;;;7.82;;
56435;SDS011;42335;44.872;20.658;2024-02-16T13:51:16;14.23;;;8.18;;
56435;SDS011;42335;44.872;20.658;2024-02-16T13:53:42;11.02;;;7.93;;
56435;SDS011;42335;44.872;20.658;2024-02-16T13:56:08;11.75;;;7.38;;
56435;SDS011;42335;44.872;20.658;2024-02-16T13:58:34;11.60;;;8.02;;
56435;SDS011;42335;44.872;20.658;2024-02-16T14:01:00;11.77;;;7.60;;
56435;SDS011;42335;44.872;20.658;2024-02-16T14:03:28;11.75;;;8.48;;
56435;SDS011;42335;44.872;20.658;2024-02-16T14:05:54;13.60;;;8.23;;
56435;SDS011;42335;44.872;20.658;2024-02-16T14:08:20;12.13;;;7.75;;
56435;SDS011;42335;44.872;20.658;2024-02-16T14:10:46;10.95;;;7.55;;
56435;SDS011;42335;44.872;20.658;2024-02-16T14:13:11;15.40;;;7.80;;
56435;SDS011;42335;44.872;20.658;2024-02-16T14:15:37;10.98;;;7.22;;